Date,TemperatureHighF,TemperatureAvgF,TemperatureLowF,DewpointHighF,DewpointAvgF,DewpointLowF,HumidityHigh,HumidityAvg,HumidityLow,PressureMaxIn,PressureMinIn,WindSpeedMaxMPH,WindSpeedAvgMPH,GustSpeedMaxMPH,PrecipitationSumIn
2013-1-1,65.2,56.5,49.5,54.3,49.7,43.9,89,78,65,30.02,29.78,3,0,7,0.00
2013-1-2,63.5,56.2,48.5,57.7,51.8,45.2,95,85,76,30.01,29.74,4,1,10,0.00
2013-1-3,48.5,44.6,38.2,45.7,42.4,36.5,96,92,85,30.12,29.96,3,0,6,0.09
2013-1-4,57.3,41.6,31.3,40.6,33.6,27.8,98,77,36,30.20,30.08,4,0,6,0.01
2013-1-5,54.4,40.3,29.8,37.1,31.5,24.8,94,74,35,30.26,30.14,3,0,5,0.00
2013-1-6,53.8,47.8,40.2,46.3,42.7,37.2,96,83,64,30.14,29.94,2,0,4,0.00
2013-1-7,59.5,48.2,37.6,44.5,38.2,30.5,95,71,37,30.25,30.00,5,2,13,0.00
2013-1-8,70.1,53.2,41.5,53.7,45.0,34.2,94,75,55,30.25,30.17,5,1,14,0.00
2013-1-9,75.3,60.5,48.9,59.7,54.9,47.5,96,84,56,30.24,30.17,4,1,11,0.00
2013-1-10,69.9,59.9,54.2,59.0,50.8,36.2,99,74,44,30.31,30.23,9,3,19,0.00
2013-1-11,75.1,62.3,54.8,65.5,58.4,45.6,99,88,69,30.23,30.03,6,1,14,0.14
2013-1-12,81.2,67.3,59.9,65.2,61.5,57.3,100,84,51,30.05,29.97,4,1,10,0.00
2013-1-13,76.3,64.9,59.3,63.8,60.1,58.5,99,86,58,30.03,29.94,5,1,11,0.00
2013-1-14,80.1,66.2,57.2,66.2,61.2,56.9,100,86,56,30.05,29.96,5,1,10,0.01
2013-1-15,77.9,65.7,58.7,64.1,61.6,57.9,100,88,61,30.02,29.89,3,1,8,0.00
2013-1-16,80.5,69.0,62.6,65.2,62.5,59.5,100,82,50,29.91,29.80,7,2,16,0.00
2013-1-17,76.0,63.8,45.4,66.4,57.8,39.8,96,81,61,29.89,29.59,14,4,27,0.11
2013-1-18,57.6,44.7,36.2,40.1,32.0,22.7,91,65,27,30.35,29.89,7,2,14,0.00
2013-1-19,62.9,45.8,33.2,45.2,36.6,29.6,94,73,43,30.34,30.07,3,0,6,0.00
2013-1-20,68.3,52.4,42.1,48.2,38.4,26.2,99,66,21,30.07,29.87,8,2,13,0.00
2013-1-21,66.4,51.7,35.2,46.7,35.1,27.4,95,59,24,29.93,29.78,6,2,12,0.00
2013-1-22,52.5,44.3,31.9,33.1,25.3,15.6,83,50,26,30.10,29.85,5,1,11,0.00
2013-1-23,48.9,37.5,27.8,35.2,19.7,4.7,89,54,19,30.23,30.00,5,1,12,0.00
2013-1-24,58.9,44.9,29.4,42.7,28.9,8.5,76,55,35,30.35,29.89,9,4,16,0.00
2013-1-25,41.3,34.1,25.7,33.9,20.2,5.7,76,58,39,30.34,30.00,5,2,10,0.00
2013-1-26,58.4,42.8,33.7,36.9,31.0,25.2,82,64,40,30.20,29.96,4,1,12,0.00
2013-1-27,52.0,39.5,29.7,35.2,30.5,24.3,87,71,48,30.38,30.20,7,2,15,0.00
2013-1-28,61.6,46.5,35.2,53.5,40.9,30.1,94,81,60,30.34,30.13,3,0,7,0.00
2013-1-29,76.8,58.8,43.1,62.6,54.1,42.0,100,86,57,30.13,29.98,6,1,11,0.00
2013-1-30,72.5,67.2,61.5,65.5,63.0,60.9,98,87,77,29.98,29.45,13,6,29,0.00
2013-1-31,69.9,50.9,43.2,65.4,33.2,19.9,94,54,25,29.98,29.45,17,6,26,0.14
2013-2-1,54.2,44.2,30.9,31.6,22.1,4.2,61,44,15,30.22,29.95,11,4,20,0.00
2013-2-2,54.2,39.6,26.1,41.0,27.2,10.2,92,62,44,30.25,29.92,5,1,10,0.00
2013-2-3,58.6,47.4,40.1,38.0,32.9,27.0,82,60,33,29.92,29.74,10,3,17,0.00
2013-2-4,49.8,40.9,29.4,36.1,31.1,26.8,93,70,44,30.00,29.86,3,1,7,0.00
2013-2-5,68.9,52.7,39.3,48.7,39.8,32.8,91,67,27,29.91,29.78,8,2,16,0.00
2013-2-6,71.8,56.1,45.8,49.5,45.0,38.0,95,70,31,30.06,29.86,5,1,11,0.00
2013-2-7,59.0,52.2,43.8,55.0,49.5,42.2,99,91,72,30.05,29.57,8,2,15,0.83
2013-2-8,63.1,55.1,48.2,55.7,48.0,44.5,99,78,55,29.89,29.50,8,4,15,0.10
2013-2-9,63.1,47.5,36.6,46.6,31.1,19.6,90,58,23,30.21,29.89,6,1,11,0.00
2013-2-10,61.2,47.4,32.7,53.7,40.8,30.9,96,80,50,30.29,30.08,8,2,16,0.00
2013-2-11,66.1,61.2,55.7,62.5,59.2,52.7,97,93,85,30.11,29.87,6,2,16,0.58
2013-2-12,63.4,57.1,49.8,58.6,54.2,47.9,100,91,66,29.97,29.78,4,1,11,0.61
2013-2-13,66.3,55.1,48.3,60.7,51.2,47.2,100,88,61,29.79,29.52,9,3,16,0.13
2013-2-14,54.7,48.6,41.1,48.5,39.8,34.8,92,73,50,29.93,29.67,5,1,9,0.00
2013-2-15,60.2,46.3,34.3,43.0,38.1,33.0,98,76,38,29.95,29.81,5,1,11,0.00
2013-2-16,54.1,41.4,32.8,43.3,37.8,30.2,96,88,61,29.81,29.64,12,2,16,0.14
2013-2-17,41.5,33.4,27.2,30.8,21.6,10.9,92,65,31,30.14,29.81,13,5,22,0.00
2013-2-18,53.9,38.1,24.8,31.6,26.0,19.4,92,66,27,30.29,30.13,5,1,12,0.00
2013-2-19,63.1,49.5,33.2,55.3,45.3,30.5,98,86,57,30.13,29.80,7,2,14,0.06
2013-2-20,56.7,47.3,35.0,47.9,34.5,19.7,95,65,27,30.00,29.86,5,1,10,0.00
2013-2-21,59.9,45.7,35.3,41.9,32.2,21.0,92,64,28,30.05,29.94,5,1,10,0.00
2013-2-22,51.7,47.6,42.6,49.9,43.6,30.9,98,86,60,30.10,29.91,8,3,17,0.09
2013-2-23,49.1,45.7,42.8,49.1,45.5,42.5,100,99,98,29.91,29.61,6,1,10,0.49
2013-2-24,67.8,52.4,45.7,50.3,46.9,35.8,100,85,34,29.86,29.61,5,2,11,0.01
2013-2-25,46.0,44.3,42.3,43.6,37.9,33.8,96,79,65,30.00,29.81,6,2,12,0.00
2013-2-26,70.9,58.7,43.1,66.6,56.3,40.9,100,92,78,29.88,29.43,10,4,21,0.87
2013-2-27,59.0,52.8,47.6,55.7,41.9,35.4,92,67,49,29.71,29.52,10,4,13,0.00
2013-2-28,58.0,50.1,41.1,41.3,35.6,29.6,86,60,35,29.72,29.59,10,4,18,0.00
2013-3-1,43.1,41.0,38.6,35.3,31.8,29.8,79,70,64,29.77,29.71,3,0,7,0.00
2013-3-4,53.5,43.8,38.0,32.2,25.5,16.3,78,52,23,29.97,29.91,4,1,8,0.00
2013-3-5,64.8,53.1,38.8,54.4,41.6,32.2,91,67,41,29.97,29.50,9,3,17,0.00
2013-3-6,62.3,49.0,41.8,52.2,29.6,20.3,76,48,32,29.89,29.46,15,9,24,0.00
2013-3-7,57.5,46.1,35.2,35.2,30.0,27.8,76,55,34,30.05,29.89,8,3,14,0.00
2013-3-8,58.9,46.4,34.7,32.1,27.4,22.7,73,50,26,30.11,29.99,8,2,14,0.00
2013-3-9,66.3,49.0,36.3,41.8,33.9,27.7,87,58,30,30.15,30.07,5,1,11,0.00
2013-3-10,64.2,49.5,36.3,46.3,34.8,24.4,97,64,22,30.15,30.07,6,1,14,0.00
2013-3-11,70.8,57.5,43.1,57.9,50.2,39.3,97,78,52,30.08,29.78,7,2,15,0.00
2013-3-12,71.1,63.9,57.6,62.3,58.7,48.6,98,84,67,29.79,29.63,7,2,15,0.43
2013-3-13,63.4,54.5,44.3,48.5,33.8,22.1,74,49,22,29.95,29.76,10,2,15,0.00
2013-3-14,55.0,44.9,35.6,31.6,22.2,16.5,74,42,25,30.13,29.94,7,3,13,0.00
2013-3-15,60.4,47.6,31.8,43.7,33.6,19.4,93,62,27,30.07,29.86,7,2,13,0.00
2013-3-16,80.1,66.0,54.8,50.6,44.7,38.4,69,48,23,29.86,29.64,10,5,20,0.00
2013-3-17,78.5,66.0,56.9,57.3,49.7,43.4,70,56,34,29.89,29.76,7,3,14,0.00
2013-3-18,61.8,56.1,50.5,54.2,51.1,48.2,96,84,62,29.96,29.70,6,2,11,0.02
2013-3-19,70.6,58.6,50.7,56.1,49.7,37.3,99,77,31,29.84,29.65,9,3,14,0.03
2013-3-20,61.8,51.5,41.1,45.5,29.7,15.7,86,47,18,29.96,29.67,5,1,13,0.00
2013-3-21,54.4,45.5,38.3,36.9,22.3,10.1,92,45,19,29.80,29.59,12,4,18,0.00
2013-3-22,51.7,42.4,30.3,37.0,23.1,12.9,68,48,24,29.95,29.80,5,1,12,0.00
2013-3-23,50.5,45.7,40.1,46.4,41.5,36.2,94,86,67,29.91,29.75,4,0,7,0.24
2013-3-24,61.2,50.8,44.3,58.7,49.2,42.7,100,94,82,29.75,29.28,11,4,29,1.66
2013-3-25,52.9,47.2,42.8,43.8,32.7,22.6,96,61,33,29.75,29.41,14,7,22,0.00
2013-3-26,50.8,42.6,33.4,29.6,25.8,22.1,72,52,36,29.99,29.75,10,4,16,0.00
2013-3-27,56.3,44.5,32.8,32.5,27.4,19.9,86,55,28,30.09,29.99,9,2,15,0.00
2013-3-28,58.6,45.1,32.2,32.9,27.0,20.4,84,54,25,30.12,30.01,8,2,16,0.00
2013-3-29,59.5,47.8,32.9,39.6,32.6,25.4,89,59,33,30.19,30.07,6,2,15,0.00
2013-3-30,63.5,54.4,47.1,50.3,45.4,39.0,92,73,50,30.09,29.95,5,1,15,0.00
2013-3-31,74.4,62.8,49.9,57.9,54.2,47.7,96,75,51,29.95,29.73,9,3,20,0.34
2013-4-1,75.3,64.2,58.6,61.0,57.7,54.1,97,81,48,29.77,29.67,7,2,15,0.20
2013-4-2,63.2,56.6,50.2,54.5,42.1,30.9,89,60,35,30.01,29.77,6,2,15,0.00
2013-4-3,64.2,54.9,48.8,50.2,42.9,28.6,96,68,28,30.10,29.92,6,2,15,0.00
2013-4-4,59.2,53.2,48.9,58.9,49.0,38.7,99,86,62,30.11,29.66,11,5,25,0.94
2013-4-5,60.4,49.0,42.6,50.3,45.4,41.5,99,88,63,29.88,29.70,8,2,15,0.00
2013-4-6,66.3,53.9,41.9,51.1,44.3,37.8,99,74,37,30.11,29.88,8,2,20,0.00
2013-4-7,71.5,58.3,44.2,57.6,51.7,42.9,98,80,49,30.12,30.01,4,1,11,0.00
2013-4-8,77.0,64.6,52.0,61.6,57.0,50.9,99,79,52,30.05,29.98,6,1,15,0.00
2013-4-9,80.3,68.5,58.3,66.1,60.7,55.5,100,79,45,30.08,29.98,5,1,12,0.00
2013-4-10,79.2,69.2,60.5,64.0,61.7,57.6,98,79,52,30.02,29.89,7,2,18,0.00
2013-4-11,79.9,70.3,62.7,69.5,65.8,60.9,99,86,69,29.89,29.72,8,2,18,0.00
2013-4-12,80.9,71.4,66.4,70.5,68.0,64.2,99,90,68,29.73,29.56,8,4,19,0.90
2013-4-22,68.8,63.1,56.2,51.1,48.8,46.7,74,60,50,30.12,30.00,5,2,15,0.00
2013-4-23,68.3,57.2,51.0,55.5,50.8,47.8,92,80,61,30.06,29.98,4,1,18,0.00
2013-4-24,75.1,62.5,49.5,62.1,55.9,48.4,99,81,60,30.04,29.92,5,1,12,0.00
2013-4-25,78.5,66.3,59.6,67.5,61.9,58.5,97,87,61,30.10,29.93,5,1,13,0.84
2013-4-26,73.3,60.8,50.8,58.5,50.9,37.8,99,74,28,30.25,30.09,6,1,14,0.01
2013-4-27,75.1,62.6,53.6,59.3,51.7,42.5,97,72,34,30.20,30.09,6,1,17,0.00
2013-4-28,72.1,66.3,59.6,62.5,60.2,54.6,93,81,66,30.09,29.92,5,1,15,0.00
2013-4-29,71.6,65.8,62.4,66.4,63.4,60.5,99,92,78,29.93,29.82,3,0,13,1.63
2013-4-30,74.6,66.2,62.0,66.6,62.7,59.4,100,89,65,29.97,29.82,5,1,10,0.01
2013-5-1,75.1,64.9,58.4,62.8,59.3,55.8,95,83,59,30.04,29.93,4,1,14,0.00
2013-5-2,71.8,66.1,62.6,62.9,60.6,56.1,93,83,69,30.06,30.00,10,4,18,0.00
2013-5-3,68.3,62.3,56.6,59.9,54.1,40.7,90,75,49,30.00,29.92,12,4,25,0.00
2013-5-4,65.2,59.0,54.2,58.7,53.6,46.9,90,82,72,29.93,29.81,9,4,19,0.00
2013-5-5,72.3,63.7,58.9,64.4,59.5,55.4,98,86,65,29.82,29.70,9,5,21,0.14
2013-5-6,75.8,66.5,58.7,64.5,59.3,50.9,98,79,43,29.76,29.67,5,1,15,0.15
2013-5-7,70.4,60.9,53.9,58.3,54.1,48.9,93,80,54,29.82,29.74,3,0,8,0.08
2013-5-8,77.2,65.6,53.9,61.9,57.3,52.6,97,77,48,29.89,29.80,4,1,12,0.01
2013-5-9,83.6,70.5,60.4,66.5,61.2,57.5,91,74,47,29.94,29.84,2,0,13,0.00
2013-5-10,84.5,72.8,62.4,66.8,62.3,58.5,88,71,45,29.94,29.86,5,1,12,0.00
2013-5-11,83.8,75.1,70.1,70.6,65.3,54.1,89,73,40,29.88,29.71,3,1,11,0.00
2013-5-12,82.6,73.6,62.3,66.4,58.6,46.8,86,63,32,29.83,29.68,4,1,10,0.00
2013-5-13,73.5,63.2,53.1,52.5,42.3,35.0,79,49,26,29.99,29.83,3,1,12,0.00
2013-5-14,72.3,61.3,48.9,52.4,44.2,36.1,90,57,29,30.11,29.99,4,1,11,0.00
2013-5-15,86.3,71.2,58.7,64.2,56.9,51.8,87,63,37,30.01,29.84,5,2,15,0.00
2013-5-16,87.8,75.0,65.5,67.8,62.1,57.4,80,65,40,29.89,29.82,4,1,10,0.00
2013-5-17,88.0,75.5,64.8,68.4,63.6,59.6,90,69,40,29.97,29.87,4,1,9,0.00
2013-5-18,84.3,73.7,65.0,70.4,66.3,62.5,96,79,51,30.02,29.94,3,1,9,0.00
2013-5-19,81.6,74.0,70.6,71.0,68.0,64.3,94,82,59,30.01,29.93,3,1,12,0.00
2013-5-20,76.0,72.0,69.6,72.2,69.5,67.2,95,92,79,29.98,29.90,3,0,12,0.40
2013-5-21,79.0,73.1,70.1,72.8,69.8,68.0,98,90,72,29.94,29.84,3,0,8,0.39
2013-5-22,83.2,74.7,66.3,72.7,69.3,65.4,100,84,66,29.89,29.80,3,1,12,0.00
2013-5-23,82.4,72.7,67.1,73.6,69.2,64.4,99,89,68,29.83,29.70,7,0,13,0.74
2013-5-24,79.9,70.8,58.4,68.8,59.4,44.8,99,71,35,30.02,29.67,4,1,11,0.01
2013-5-25,78.8,63.2,49.4,55.9,45.8,34.5,87,58,22,30.15,30.01,1,0,11,0.00
2013-5-26,79.0,67.3,58.0,61.4,54.9,46.8,92,68,38,30.11,30.01,2,0,11,0.00
2013-5-27,79.6,70.2,60.2,64.7,62.2,58.8,98,77,57,30.12,30.04,3,1,11,0.00
2013-5-28,82.0,73.3,63.7,68.4,64.7,61.9,98,76,56,30.12,30.05,3,0,11,0.00
2013-5-29,82.6,74.0,64.8,69.9,65.6,63.0,97,77,55,30.13,30.02,4,0,11,0.00
2013-5-30,85.1,75.3,64.0,71.3,67.5,62.4,98,78,56,30.12,30.04,3,0,11,0.00
2013-5-31,84.0,76.4,68.1,72.8,69.6,66.6,97,80,63,30.09,30.00,2,0,11,0.00
2013-6-1,84.1,75.8,66.6,71.5,68.2,64.5,99,79,55,30.03,29.93,3,0,11,0.00
2013-6-2,84.0,76.7,70.3,73.1,70.8,68.5,96,83,68,29.97,29.81,5,1,14,0.00
2013-6-3,78.5,74.3,69.9,76.2,72.1,67.5,99,93,85,29.82,29.72,6,1,13,1.12
2013-6-4,84.3,75.4,68.8,75.0,71.3,68.5,100,88,64,29.90,29.76,3,0,11,0.00
2013-6-5,79.8,76.1,74.6,73.6,72.2,70.8,95,88,79,29.92,29.84,7,3,16,0.00
2013-6-6,78.8,75.2,71.8,75.8,73.1,70.9,100,93,83,29.85,29.61,4,1,16,1.61
2013-6-7,82.0,76.3,72.1,75.1,72.5,70.0,100,89,69,29.72,29.41,9,3,21,0.70
2013-6-8,88.2,79.8,75.3,75.6,72.9,69.3,94,80,56,29.95,29.71,5,1,21,0.00
2013-6-9,76.5,76.3,76.1,74.0,73.8,73.6,92,92,92,29.95,29.95,0,0,21,0.00
2013-6-11,88.2,80.2,74.2,74.4,72.6,70.2,97,79,58,29.87,29.76,3,1,10,0.42
2013-6-12,91.2,81.3,71.3,79.8,75.4,71.0,100,84,64,29.84,29.75,0,0,9,0.00
2013-6-13,95.6,82.7,77.9,77.5,69.0,-99.9,95,70,48,29.76,29.53,6,-33,17,0.00
2013-6-14,86.5,77.9,68.9,75.0,63.2,56.1,93,63,39,29.86,29.55,4,1,11,0.02
2013-6-15,83.2,73.6,62.6,68.2,59.9,49.7,95,66,32,30.00,29.86,3,0,11,0.00
2013-6-16,84.7,75.4,65.5,66.6,64.0,60.9,89,69,49,30.03,29.92,3,0,9,0.00
2013-6-17,85.5,77.7,69.9,74.7,70.5,65.1,93,79,60,29.94,29.82,5,1,12,0.00
2013-6-18,90.1,78.8,72.3,78.6,72.9,68.2,98,83,58,29.87,29.68,4,1,12,0.25
2013-6-19,80.3,76.7,72.1,75.7,72.2,69.0,96,86,73,29.92,29.72,4,0,11,0.06
2013-6-20,84.5,74.9,68.1,70.9,67.1,61.8,96,78,54,30.02,29.91,7,2,16,0.01
2013-6-21,83.6,74.2,64.3,72.8,66.9,59.2,96,79,64,30.04,29.97,3,0,9,0.04
2013-6-22,85.7,75.5,69.9,74.8,71.6,69.2,99,89,64,30.01,29.94,0,0,9,0.03
2013-6-23,85.5,77.4,70.8,78.1,73.3,69.7,98,88,70,30.05,30.00,1,0,9,0.10
2013-6-24,84.3,79.1,76.3,78.0,74.5,72.7,94,86,72,30.08,30.00,2,0,9,0.27
2013-6-25,87.8,80.3,74.6,77.0,74.3,71.8,98,83,64,30.02,29.90,4,1,10,0.00
2013-6-26,90.1,79.4,73.9,75.7,72.7,70.0,96,81,60,29.92,29.81,4,1,13,0.00
2013-6-27,91.6,79.8,73.9,77.8,73.6,66.2,96,82,56,29.86,29.64,4,1,13,0.00
2013-6-28,92.5,82.9,77.2,79.1,75.3,71.9,90,79,52,29.68,29.50,7,2,13,0.00
2013-6-29,86.1,79.0,73.3,77.5,73.3,69.7,94,83,66,29.63,29.52,5,1,14,0.06
2013-6-30,83.6,77.1,72.7,78.0,74.7,71.2,98,92,79,29.75,29.59,3,1,13,0.85
2013-7-1,80.7,76.0,72.5,78.2,74.4,70.7,100,95,81,29.90,29.69,5,1,14,2.93
2013-7-2,79.9,76.7,73.3,77.8,74.8,70.5,99,94,84,30.03,29.88,3,0,13,0.37
2013-7-3,86.5,79.6,75.4,78.2,75.7,73.2,99,88,72,30.09,30.00,4,1,14,0.00
2013-7-4,86.3,81.1,76.8,76.4,74.6,72.1,91,81,69,30.10,30.05,4,1,13,0.00
2013-7-5,86.1,81.2,77.2,79.3,75.2,73.2,92,82,71,30.11,30.04,3,1,11,0.03
2013-7-6,86.3,79.6,72.5,75.5,73.0,70.9,98,81,65,30.09,30.00,3,1,12,0.00
2013-7-7,87.0,79.5,73.0,75.5,72.3,70.2,97,80,61,30.05,29.96,3,0,11,0.00
2013-7-8,87.4,77.8,71.5,74.1,70.1,-99.9,98,80,62,30.04,29.98,0,-11,4,0.00
2013-7-9,88.0,79.7,72.5,75.3,72.7,70.7,97,80,61,30.04,29.95,1,0,4,0.00
2013-7-10,88.2,80.1,73.5,74.9,73.2,71.7,96,80,60,29.99,29.83,3,1,11,0.00
2013-7-11,88.4,80.4,74.4,75.5,73.3,69.4,94,80,56,29.87,29.75,4,1,13,0.00
2013-7-12,79.4,75.8,73.3,75.4,73.5,71.4,98,93,83,29.83,29.73,1,0,4,0.52
2013-7-13,85.9,77.9,72.7,76.7,74.1,72.4,99,89,69,29.96,29.80,3,0,10,0.11
2013-7-14,86.3,80.7,73.9,76.6,74.4,71.5,96,82,70,30.09,29.96,7,2,14,0.05
2013-7-15,85.9,55.6,77.9,78.2,18.4,-99.9,96,56,70,30.12,30.06,9,-317,12,0.18
2013-7-16,90.1,76.4,73.9,78.0,63.2,-99.9,99,75,58,30.13,30.04,2,-58,7,0.00
2013-7-17,92.3,68.5,71.1,79.0,51.5,-99.9,99,77,61,30.06,29.95,1,-119,4,0.66
2013-7-18,89.9,79.5,72.0,78.4,74.4,71.8,100,86,64,30.00,29.92,1,0,6,0.00
2013-7-19,88.0,80.0,72.8,76.0,73.6,71.6,99,82,62,29.99,29.87,3,0,13,0.00
2013-7-20,86.5,79.1,75.6,76.8,73.5,71.3,94,83,67,29.94,29.85,6,1,13,0.33
2013-7-21,86.3,78.0,74.0,77.0,73.0,71.3,93,85,70,29.90,29.80,4,1,12,0.00
2013-7-22,88.8,80.2,73.9,76.2,73.6,72.0,95,81,61,29.84,29.74,4,1,11,0.00
2013-7-23,88.8,80.5,74.9,74.4,72.7,71.2,91,78,60,29.76,29.63,3,1,13,0.00
2013-7-24,87.0,79.9,75.4,76.3,74.2,71.7,94,83,62,29.67,29.61,2,0,6,0.00
2013-7-25,89.3,79.4,71.6,76.1,73.1,70.4,97,82,58,29.84,29.62,2,0,6,0.00
2013-7-26,86.7,78.1,70.4,75.6,72.1,68.6,96,83,65,29.92,29.83,5,1,10,0.00
2013-7-27,87.0,78.8,71.5,74.8,72.4,69.7,97,82,63,29.90,29.78,2,0,10,0.00
2013-7-28,87.6,79.3,73.2,77.1,74.5,71.7,96,86,67,29.88,29.76,2,0,10,0.01
2013-7-29,89.0,74.7,71.5,79.4,66.2,-99.9,100,85,62,29.99,29.86,10,-43,10,1.28
2013-7-30,78.5,74.1,72.8,77.3,74.1,72.8,100,100,94,30.03,29.97,0,0,0,0.00
2013-9-12,90.3,82.8,74.7,72.6,69.8,67.2,85,66,51,29.87,29.72,0,0,2,0.00
2013-9-13,91.4,78.8,72.7,75.8,71.3,67.7,92,79,47,29.72,29.59,1,0,7,0.00
2013-9-14,83.8,74.9,68.4,69.2,64.7,60.8,85,71,57,29.92,29.65,4,1,11,0.00
2013-9-15,82.4,75.0,66.9,72.5,69.1,63.6,93,82,71,30.03,29.92,6,1,15,0.00
2013-9-16,87.4,69.8,72.5,76.9,56.4,-99.9,97,79,64,29.98,29.87,0,-94,3,0.16
2013-9-17,82.2,72.7,66.8,71.7,62.5,57.1,94,72,46,30.07,29.93,5,2,13,0.02
2013-9-18,79.4,66.9,57.8,63.1,57.6,52.7,89,73,49,30.08,29.99,3,0,10,0.00
2013-9-19,84.3,69.9,60.1,64.4,60.5,57.2,94,75,44,30.01,29.93,0,0,0,0.00
2013-9-20,84.7,72.2,62.0,67.4,63.5,60.6,97,77,48,29.94,29.81,0,0,0,0.00
2013-9-21,82.6,74.8,67.3,74.4,69.1,65.3,95,83,66,29.81,29.57,3,0,9,0.16
2013-9-22,77.7,72.2,66.9,72.0,67.7,63.9,97,86,74,29.71,29.52,3,0,11,0.61
2013-9-23,82.0,68.6,59.3,64.5,60.0,56.5,97,77,47,29.90,29.71,4,0,10,0.00
2013-9-24,79.6,66.5,57.0,61.2,57.4,51.7,95,76,43,29.92,29.79,4,0,10,0.00
2013-9-25,76.7,67.6,60.2,65.9,62.0,57.7,94,83,67,29.80,29.67,1,0,4,0.01
2013-9-26,79.9,68.3,61.6,64.9,61.7,57.0,97,81,48,29.81,29.67,2,0,7,0.29
2013-9-27,80.5,68.0,59.2,62.0,58.5,55.2,95,74,47,29.97,29.80,4,1,11,0.00
2013-9-28,79.4,67.2,60.1,62.1,58.5,55.0,88,75,53,30.00,29.93,3,1,10,0.00
2013-9-29,79.8,66.3,58.0,59.5,56.9,53.3,96,75,41,29.96,29.85,3,0,14,0.00
2013-9-30,79.0,65.2,55.4,63.6,58.2,53.4,96,80,47,29.92,29.83,2,0,5,0.00
2013-10-1,82.6,66.9,55.9,62.6,58.3,54.3,99,77,41,29.98,29.89,2,0,7,0.00
2013-10-2,86.5,69.9,57.8,66.0,61.1,56.6,98,77,46,29.99,29.91,0,0,0,0.00
2013-10-3,84.0,71.4,60.5,70.5,65.6,59.3,98,83,55,30.00,29.93,0,0,0,0.00
2013-10-4,87.0,73.1,65.6,73.0,68.0,64.4,99,86,51,29.99,29.92,0,0,3,0.00
2013-10-5,86.5,73.6,64.0,71.7,67.5,62.8,99,83,48,29.98,29.90,0,0,2,0.00
2013-10-6,82.6,74.0,66.8,75.0,70.0,65.6,99,88,71,29.91,29.80,2,0,10,0.01
2013-10-7,78.8,71.2,72.5,74.8,64.9,-99.9,98,89,85,29.80,29.67,3,-44,11,0.30
2013-10-8,72.5,63.4,56.9,71.6,61.9,56.1,100,95,89,29.93,29.72,5,2,15,0.41
2013-10-9,75.4,63.2,56.7,62.6,57.6,55.2,97,83,63,29.92,29.86,4,2,14,0.01
2013-10-10,69.1,63.3,59.2,59.9,56.8,53.9,89,80,67,29.87,29.80,3,1,11,0.00
2013-10-11,80.7,68.8,62.3,66.7,62.3,59.4,93,81,55,29.83,29.75,0,0,0,0.00
2013-10-12,84.0,70.7,63.9,65.7,63.2,61.0,95,79,47,29.91,29.78,0,0,0,0.00
2013-10-13,75.8,67.8,61.5,66.3,63.8,59.8,96,88,72,29.97,29.89,2,0,10,0.00
2013-10-14,78.3,70.3,66.8,66.0,64.6,61.8,90,82,65,29.98,29.90,4,1,13,0.00
2013-10-15,72.8,66.3,61.2,63.5,60.6,57.6,90,82,70,29.97,29.86,3,0,11,0.00
2013-10-16,74.9,67.5,62.0,65.4,63.1,60.0,94,86,67,29.89,29.81,0,0,0,0.00
2013-10-17,81.6,68.9,59.0,67.1,62.8,57.9,98,82,55,29.84,29.74,0,0,1,0.00
2013-10-18,79.8,70.2,64.5,71.2,67.2,63.0,97,91,75,29.84,29.75,0,0,3,0.02
2013-10-19,81.1,71.0,65.6,73.1,68.1,62.7,99,91,70,29.81,29.71,0,0,1,0.55
2013-10-20,71.3,64.1,55.6,63.9,56.3,52.0,92,77,55,29.94,29.75,3,0,10,0.00
2013-10-21,70.6,61.1,54.2,60.9,55.5,51.0,93,83,62,29.98,29.86,2,0,5,0.00
2013-10-22,68.3,62.4,59.0,62.8,59.3,56.3,97,90,74,29.87,29.70,0,0,0,0.11
2013-10-23,73.3,62.7,53.3,61.4,52.4,38.3,99,74,32,29.86,29.58,5,1,13,0.09
2013-10-24,66.6,52.6,41.8,47.0,39.2,31.8,91,63,34,30.04,29.85,2,0,6,0.00
2013-10-25,64.3,51.2,41.9,45.5,39.8,33.4,94,69,33,30.20,29.98,4,1,12,0.00
2013-10-26,68.3,49.7,35.5,47.6,39.1,33.0,92,71,37,30.20,29.98,2,0,6,0.00
2013-10-27,73.5,55.5,42.8,54.0,46.3,39.0,94,75,41,30.00,29.91,2,0,7,0.00
2013-10-28,76.1,60.6,51.3,60.2,54.9,49.5,97,83,49,30.12,29.98,0,0,1,0.00
2013-10-29,79.0,62.3,51.7,61.6,56.3,50.6,99,83,52,30.17,30.08,2,0,7,0.00
2013-10-30,79.6,63.4,52.8,62.9,57.3,51.4,98,83,47,30.17,30.04,0,0,3,0.00
2013-10-31,79.9,66.5,54.5,68.4,61.4,53.1,98,85,62,30.07,29.84,3,0,15,0.00
2013-11-1,79.9,74.3,69.9,69.7,67.8,65.5,94,81,62,29.84,29.60,7,2,21,0.12
2013-11-2,72.0,64.8,53.8,70.1,60.5,50.7,99,87,51,29.79,29.58,4,0,12,0.54
2013-11-3,68.8,55.0,46.4,51.3,44.0,38.3,92,70,34,30.15,29.79,3,0,12,0.00
2013-11-4,67.8,53.0,43.1,44.2,40.4,36.8,86,64,38,30.31,30.15,7,1,14,0.00
2013-11-5,67.8,53.9,42.6,58.9,49.2,36.7,93,84,72,30.29,30.18,4,0,10,0.01
2013-11-6,78.1,64.9,55.7,65.1,59.0,51.8,96,82,61,30.18,29.95,6,1,13,0.11
2013-11-7,74.6,66.4,58.1,66.3,63.1,48.6,99,90,69,29.95,29.77,3,0,11,0.26
2013-11-8,63.7,51.7,40.3,49.0,35.2,27.8,88,57,28,30.15,29.89,4,1,14,0.00
2013-11-9,66.8,51.0,37.3,50.7,42.9,33.5,91,76,45,30.20,30.06,1,0,5,0.00
2013-11-10,72.3,57.5,48.6,52.1,48.5,41.2,96,75,36,30.09,29.97,1,0,5,0.00
2013-11-11,67.9,53.5,44.8,46.9,40.5,32.2,92,65,36,30.16,30.01,4,1,9,0.00
2013-11-12,72.8,53.9,37.9,49.4,40.8,27.1,96,66,33,30.21,29.85,8,1,17,0.00
2013-11-13,52.2,38.9,29.5,31.1,24.3,17.6,84,59,28,30.35,30.20,6,1,20,0.00
2013-11-14,65.0,42.7,27.3,40.4,30.5,21.5,91,68,25,30.36,30.19,1,0,5,0.00
2013-11-15,63.2,53.3,38.8,59.6,49.9,36.4,96,89,75,30.19,30.02,4,1,10,0.00
2013-11-16,77.7,64.6,57.6,64.5,59.8,55.9,99,86,54,30.07,30.01,4,0,9,0.00
2013-11-17,74.0,64.0,54.1,67.9,62.1,53.0,98,94,77,30.04,29.84,2,0,6,0.03
2013-11-18,82.8,72.2,62.9,70.1,66.3,45.5,99,83,53,29.84,29.64,3,0,11,0.01
2013-11-19,65.2,55.3,46.4,47.3,34.0,28.0,69,47,27,30.08,29.75,4,0,14,0.00
2013-11-20,62.7,51.0,42.9,45.2,39.5,33.3,78,65,49,30.20,30.07,1,0,7,0.00
2013-11-21,72.0,58.5,49.4,60.4,52.1,44.3,95,80,61,30.24,30.17,1,0,5,0.00
2013-11-22,75.6,64.4,59.2,63.8,60.9,57.6,98,89,64,30.19,29.99,2,0,6,0.00
2013-11-23,65.6,61.3,54.1,64.4,59.4,40.8,99,94,64,29.99,29.86,3,0,9,0.10
2013-11-24,53.9,41.3,29.3,40.8,19.0,7.8,65,42,21,30.38,29.96,3,1,16,0.00
2013-11-25,52.3,37.7,27.0,33.1,18.8,5.9,78,48,24,30.43,30.13,2,0,6,0.00
2013-12-11,59.2,47.1,37.2,36.1,30.9,19.2,92,58,26,30.32,30.15,5,1,10,0.00
2013-12-12,55.6,41.7,30.6,36.8,28.5,17.1,93,65,24,30.25,30.11,4,1,17,0.00
2013-12-13,57.8,40.5,27.8,38.8,29.3,17.6,92,69,25,30.27,30.12,4,0,9,0.00
2013-12-14,68.9,59.1,43.3,67.4,55.3,39.1,98,87,70,30.12,29.62,8,2,16,0.37
2013-12-15,66.4,55.8,43.5,64.9,50.4,41.1,95,83,63,29.96,29.58,9,3,13,0.04
2013-12-16,63.1,45.7,33.5,43.6,38.0,31.4,96,78,36,30.06,29.96,3,0,9,0.00
2013-12-17,67.3,51.8,39.2,43.3,37.4,32.7,91,62,29,30.05,29.89,7,2,15,0.00
2013-12-18,58.6,47.7,34.1,36.9,30.7,22.3,87,55,27,30.17,29.90,5,1,11,0.00
2013-12-19,66.3,45.5,30.6,44.3,36.3,28.6,93,75,35,30.22,30.11,3,0,9,0.00
2013-12-20,75.4,58.4,44.6,59.8,52.6,42.4,97,83,52,30.11,30.00,5,1,12,0.00
2013-12-21,76.5,64.7,54.1,66.7,61.0,52.5,100,89,68,30.03,29.95,4,1,15,0.00
2013-12-22,81.2,72.0,63.7,69.3,66.3,61.3,98,83,62,29.98,29.92,8,3,19,0.00
2013-12-23,77.4,69.6,59.8,70.3,66.5,58.5,97,90,72,29.97,29.88,6,3,18,0.26
2013-12-24,60.1,49.8,38.5,59.3,43.3,31.9,98,80,49,30.25,29.90,5,1,11,0.06
2013-12-25,51.7,38.6,28.8,32.0,25.9,19.6,78,61,39,30.34,30.18,3,1,9,0.00
2013-12-26,47.1,41.0,35.0,40.9,35.9,27.8,92,82,73,30.18,30.08,3,0,9,0.01
2013-12-27,59.3,44.5,36.6,38.2,33.7,27.1,92,69,30,30.27,30.16,3,0,9,0.00
2013-12-28,66.3,48.2,31.6,53.4,37.4,24.3,94,70,24,30.25,29.92,4,1,12,0.20
2013-12-29,71.5,63.6,51.0,66.6,60.0,48.5,100,89,62,29.93,29.61,10,3,24,0.80
2013-12-30,56.7,49.7,44.6,49.4,47.2,43.7,99,91,71,30.00,29.80,3,0,9,0.00
2013-12-31,55.6,49.2,41.2,47.4,42.6,37.2,95,79,52,30.23,29.97,5,1,9,0.00
2014-1-1,50.8,44.0,38.0,44.7,39.7,34.6,96,86,55,30.24,30.00,2,0,9,0.13
2014-1-2,56.9,50.5,45.8,56.9,49.9,44.7,100,98,85,30.00,29.47,8,1,13,0.60